Thunder radar more information blitzortung!


Radar de pluja more information rain snow radar


Visita la nostra xarxa de llocs de meteo:

Template documentation
and downloads

And another site



Wind From: 11-12-2017 11:00 Until: 14:59 warning for: Wind Level: Yellow info button

Pagina Historial Weather Underground text

Diari Resum January 24, 2016 Unitats:  Mètric    Imperial   Tant
« Previous Dia
SegĂźent Dia »
Diari Setmana Mensual Anual Personalitzada
  Maxima: Minima: Media:
Temperatura: 12.0 °C 11.1 °C 11.5 °C
Punt de rosada: 8.2 °C 7.6 °C 7.9 °C
Humitat: 82 % 75 % 79 %
Wind Speed: 9.3 km/h 0.0 km/h 2.9 km/h
RĂ fegues de vent: 9.3 km/h - -
Vent:- - SW
Pression baro: 1034.8 hPa 1032.7 hPa -
Precipitacions: 0.0 mm    
Historical Graphs
 
 
Dades de taula per January 24, 2016
Temps Temperatura Punt de rosada Pression baro Vent Wind Speed RĂ fegues de vent Humitat Rainfall Rate (Hourly)
18:14 12.0 °C 7.7 °C 1032.7 hPa Calm     75 % 0.0 mm
18:20 11.9 °C 7.6 °C 1033.7 hPa Calm     75 % 0.0 mm
18:25 11.9 °C 7.6 °C 1033.7 hPa Calm     75 % 0.0 mm
18:30 11.9 °C 7.8 °C 1033.7 hPa Calm     76 % 0.0 mm
18:35 11.8 °C 7.7 °C 1033.7 hPa Calm     76 % 0.0 mm
18:40 11.8 °C 7.7 °C 1033.7 hPa Calm     76 % 0.0 mm
18:45 11.8 °C 7.7 °C 1033.7 hPa Calm     76 % 0.0 mm
19:02 11.8 °C 7.7 °C 1033.7 hPa SW 2.3 km/h 2.3 km/h 76 % 0.0 mm
19:07 11.8 °C 7.7 °C 1033.7 hPa SW 1.9 km/h 1.9 km/h 76 % 0.0 mm
19:12 11.8 °C 7.7 °C 1033.7 hPa Calm     76 % 0.0 mm
19:17 11.8 °C 7.7 °C 1033.7 hPa Calm     76 % 0.0 mm
19:22 11.8 °C 7.7 °C 1033.7 hPa SW 3.7 km/h   76 % 0.0 mm
19:28 11.8 °C 7.7 °C 1033.7 hPa WSW 7.4 km/h 7.4 km/h 76 % 0.0 mm
19:33 11.8 °C 7.7 °C 1033.7 hPa SW 5.6 km/h 5.6 km/h 76 % 0.0 mm
19:38 11.8 °C 7.9 °C 1033.7 hPa SSW 5.6 km/h 5.6 km/h 77 % 0.0 mm
19:43 11.8 °C 7.9 °C 1033.7 hPa SW 3.7 km/h 3.7 km/h 77 % 0.0 mm
19:48 11.8 °C 7.9 °C 1033.7 hPa WSW 3.7 km/h 3.7 km/h 77 % 0.0 mm
19:53 11.8 °C 7.9 °C 1033.7 hPa WSW 1.9 km/h   77 % 0.0 mm
19:58 11.8 °C 7.9 °C 1033.7 hPa SW 4.2 km/h 4.2 km/h 77 % 0.0 mm
20:06 11.7 °C 7.8 °C 1033.7 hPa SW 4.2 km/h 4.2 km/h 77 % 0.0 mm
20:11 11.7 °C 7.8 °C 1033.7 hPa SW 3.2 km/h 3.2 km/h 77 % 0.0 mm
20:16 11.7 °C 7.8 °C 1033.7 hPa SW 3.5 km/h 3.5 km/h 77 % 0.0 mm
20:21 11.6 °C 7.7 °C 1033.7 hPa SW 5.0 km/h 5.0 km/h 77 % 0.0 mm
20:26 11.6 °C 7.9 °C 1033.7 hPa SW 5.0 km/h 5.0 km/h 78 % 0.0 mm
20:31 11.6 °C 7.9 °C 1033.7 hPa WSW 7.4 km/h 7.4 km/h 78 % 0.0 mm
20:41 11.6 °C 8.1 °C 1033.7 hPa SW 5.6 km/h 5.6 km/h 79 % 0.0 mm
20:47 11.5 °C 8.0 °C 1033.7 hPa SW 5.6 km/h 5.6 km/h 79 % 0.0 mm
20:52 11.5 °C 8.0 °C 1034.8 hPa SW 3.7 km/h 3.7 km/h 79 % 0.0 mm
20:57 11.5 °C 8.0 °C 1034.8 hPa SW 1.9 km/h 1.9 km/h 79 % 0.0 mm
21:02 11.5 °C 8.0 °C 1034.8 hPa WSW 4.7 km/h 4.7 km/h 79 % 0.0 mm
21:07 11.4 °C 7.9 °C 1033.7 hPa SW 2.3 km/h 2.6 km/h 79 % 0.0 mm
21:12 11.4 °C 7.9 °C 1033.7 hPa WSW 7.4 km/h 7.4 km/h 79 % 0.0 mm
21:17 11.4 °C 7.9 °C 1033.7 hPa SW 3.7 km/h 3.9 km/h 79 % 0.0 mm
21:22 11.4 °C 7.9 °C 1034.8 hPa WSW 3.7 km/h 3.7 km/h 79 % 0.0 mm
21:27 11.4 °C 7.9 °C 1034.8 hPa Calm     79 % 0.0 mm
21:32 11.4 °C 7.9 °C 1034.8 hPa Calm     79 % 0.0 mm
21:37 11.4 °C 7.9 °C 1033.7 hPa WSW 3.9 km/h 3.9 km/h 79 % 0.0 mm
21:42 11.4 °C 7.9 °C 1033.7 hPa SW 7.4 km/h 7.4 km/h 79 % 0.0 mm
21:47 11.3 °C 8.0 °C 1033.7 hPa SW 3.7 km/h 3.7 km/h 80 % 0.0 mm
21:52 11.3 °C 8.0 °C 1033.7 hPa WSW 9.3 km/h 9.3 km/h 80 % 0.0 mm
21:57 11.4 °C 8.1 °C 1033.7 hPa SW 5.6 km/h 5.6 km/h 80 % 0.0 mm
22:02 11.3 °C 8.0 °C 1033.7 hPa SW 4.2 km/h 4.2 km/h 80 % 0.0 mm
22:07 11.3 °C 8.0 °C 1033.7 hPa WSW 3.9 km/h 3.9 km/h 80 % 0.0 mm
22:12 11.3 °C 8.0 °C 1033.7 hPa West 3.9 km/h 3.9 km/h 80 % 0.0 mm
22:17 11.3 °C 8.0 °C 1033.7 hPa SW 5.6 km/h 5.6 km/h 80 % 0.0 mm
22:22 11.3 °C 8.0 °C 1032.7 hPa SW 5.6 km/h 5.6 km/h 80 % 0.0 mm
22:27 11.3 °C 8.0 °C 1032.7 hPa Calm     80 % 0.0 mm
22:32 11.3 °C 8.0 °C 1032.7 hPa SW 4.7 km/h 4.7 km/h 80 % 0.0 mm
22:37 11.3 °C 8.0 °C 1033.7 hPa WSW 3.7 km/h   80 % 0.0 mm
22:42 11.3 °C 8.2 °C 1033.7 hPa Calm     81 % 0.0 mm
22:47 11.3 °C 8.2 °C 1033.7 hPa Calm     81 % 0.0 mm
22:52 11.2 °C 8.2 °C 1033.7 hPa Calm     82 % 0.0 mm
22:57 11.2 °C 8.2 °C 1033.7 hPa NNE 1.9 km/h 1.9 km/h 82 % 0.0 mm
23:02 11.2 °C 8.2 °C 1033.7 hPa Calm     82 % 0.0 mm
23:07 11.2 °C 8.2 °C 1033.7 hPa Calm     82 % 0.0 mm
23:12 11.2 °C 8.2 °C 1033.7 hPa NNW 1.9 km/h 1.9 km/h 82 % 0.0 mm
23:17 11.1 °C 8.2 °C 1033.7 hPa NNE 2.6 km/h 2.6 km/h 82 % 0.0 mm
23:22 11.1 °C 8.2 °C 1033.7 hPa Calm     82 % 0.0 mm
23:27 11.1 °C 8.2 °C 1033.7 hPa Calm   1.4 km/h 82 % 0.0 mm
23:32 11.1 °C 8.2 °C 1033.7 hPa Calm     82 % 0.0 mm
Meteo Sesrovires
Elogis d' Weather Underground - 2.75 mb

Guio original per  Jim McMurry - jmcmurry@mwt.net Adaptat per a la plantilla per  Wim van der Kuil - Leuven-Template.eu

Trobareu la nostra informacio del temps tambe a:

Weather Underground

AWEKAS